Terminal Aerodrome Forecast
Issued by NWS Upton, NY

Home | Current Version | Previous Version | Text Only | Print | Product List | Glossary On
Versions: 1 2 3 4 5 6 7 8 9 10 11 12 13 14 15 16 17 18 19 20 21 22 23 24 25 26 27 28
000
FTUS41 KOKX 232300
TAFEWR
TAF
KEWR 232337Z 2400/2506 16004KT P6SM SCT100 BKN200
     FM240300 14008KT P6SM BKN010
     FM240500 14013KT 2SM RA BR OVC005 WS020/16045KT
     FM240800 16016G28KT 2SM RA BR OVC004 WS020/17055KT
     FM241100 18018G32KT 3SM SHRA BR OVC006 WS020/21045KT
     FM241400 20015G28KT 6SM BR SCT008 BKN015
     FM241900 21018G32KT P6SM SCT015 BKN040
     FM250200 21015G25KT P6SM BKN015 BKN040=

USA.gov is the U.S. government's official web portal to all federal, state and local government web resources and services.